sensor_id;sensor_type;location;lat;lon;timestamp;P1;durP1;ratioP1;P2;durP2;ratioP2
19301;SDS011;9785;59.362;12.152;2022-07-31T00:00:47;4.37;;;2.37;;
19301;SDS011;9785;59.362;12.152;2022-07-31T00:03:16;3.73;;;2.50;;
19301;SDS011;9785;59.362;12.152;2022-07-31T00:05:44;2.43;;;2.23;;
19301;SDS011;9785;59.362;12.152;2022-07-31T00:08:13;3.00;;;2.60;;
19301;SDS011;9785;59.362;12.152;2022-07-31T00:10:41;3.37;;;2.80;;
19301;SDS011;9785;59.362;12.152;2022-07-31T00:13:12;2.70;;;2.40;;
19301;SDS011;9785;59.362;12.152;2022-07-31T00:15:40;2.60;;;2.40;;
19301;SDS011;9785;59.362;12.152;2022-07-31T00:18:09;3.97;;;2.60;;
19301;SDS011;9785;59.362;12.152;2022-07-31T00:20:37;3.90;;;2.57;;
19301;SDS011;9785;59.362;12.152;2022-07-31T00:23:06;5.07;;;2.57;;
19301;SDS011;9785;59.362;12.152;2022-07-31T00:25:36;2.77;;;2.40;;
19301;SDS011;9785;59.362;12.152;2022-07-31T00:28:05;2.67;;;2.40;;
19301;SDS011;9785;59.362;12.152;2022-07-31T00:30:35;3.73;;;2.50;;
19301;SDS011;9785;59.362;12.152;2022-07-31T00:33:03;2.33;;;2.13;;
19301;SDS011;9785;59.362;12.152;2022-07-31T00:35:32;5.53;;;2.70;;
19301;SDS011;9785;59.362;12.152;2022-07-31T00:38:00;5.30;;;2.57;;
19301;SDS011;9785;59.362;12.152;2022-07-31T00:40:49;3.53;;;2.40;;
19301;SDS011;9785;59.362;12.152;2022-07-31T00:43:18;3.37;;;2.37;;
19301;SDS011;9785;59.362;12.152;2022-07-31T00:45:47;2.67;;;2.40;;
19301;SDS011;9785;59.362;12.152;2022-07-31T00:48:24;5.93;;;2.57;;
19301;SDS011;9785;59.362;12.152;2022-07-31T00:50:55;4.77;;;2.60;;
19301;SDS011;9785;59.362;12.152;2022-07-31T00:53:23;5.37;;;2.40;;
19301;SDS011;9785;59.362;12.152;2022-07-31T00:55:52;3.17;;;2.40;;
19301;SDS011;9785;59.362;12.152;2022-07-31T00:58:22;8.03;;;2.83;;
19301;SDS011;9785;59.362;12.152;2022-07-31T01:00:52;3.73;;;2.50;;
19301;SDS011;9785;59.362;12.152;2022-07-31T01:03:20;5.37;;;2.80;;
19301;SDS011;9785;59.362;12.152;2022-07-31T01:05:49;3.13;;;2.50;;
19301;SDS011;9785;59.362;12.152;2022-07-31T01:08:17;3.33;;;2.70;;
19301;SDS011;9785;59.362;12.152;2022-07-31T01:10:51;6.57;;;2.60;;
19301;SDS011;9785;59.362;12.152;2022-07-31T01:13:23;6.73;;;2.83;;
19301;SDS011;9785;59.362;12.152;2022-07-31T01:15:57;2.40;;;2.30;;
19301;SDS011;9785;59.362;12.152;2022-07-31T01:18:27;3.27;;;2.40;;
19301;SDS011;9785;59.362;12.152;2022-07-31T01:20:57;2.93;;;2.73;;
19301;SDS011;9785;59.362;12.152;2022-07-31T01:23:30;4.73;;;2.80;;
19301;SDS011;9785;59.362;12.152;2022-07-31T01:26:06;3.20;;;2.90;;
19301;SDS011;9785;59.362;12.152;2022-07-31T01:31:32;3.60;;;2.37;;
19301;SDS011;9785;59.362;12.152;2022-07-31T01:34:02;2.70;;;2.50;;
19301;SDS011;9785;59.362;12.152;2022-07-31T01:36:33;5.13;;;2.80;;
19301;SDS011;9785;59.362;12.152;2022-07-31T01:39:03;2.60;;;2.40;;
19301;SDS011;9785;59.362;12.152;2022-07-31T01:41:33;2.80;;;2.50;;
19301;SDS011;9785;59.362;12.152;2022-07-31T01:44:03;5.27;;;2.80;;
19301;SDS011;9785;59.362;12.152;2022-07-31T01:46:41;2.70;;;2.60;;
19301;SDS011;9785;59.362;12.152;2022-07-31T01:49:11;4.70;;;3.13;;
19301;SDS011;9785;59.362;12.152;2022-07-31T01:51:40;4.83;;;2.50;;
19301;SDS011;9785;59.362;12.152;2022-07-31T01:54:10;2.90;;;2.60;;
19301;SDS011;9785;59.362;12.152;2022-07-31T01:56:39;2.50;;;2.40;;
19301;SDS011;9785;59.362;12.152;2022-07-31T01:59:09;4.30;;;2.73;;
19301;SDS011;9785;59.362;12.152;2022-07-31T02:01:49;2.60;;;2.40;;
19301;SDS011;9785;59.362;12.152;2022-07-31T02:04:18;4.03;;;2.60;;
19301;SDS011;9785;59.362;12.152;2022-07-31T02:06:48;2.90;;;2.70;;
19301;SDS011;9785;59.362;12.152;2022-07-31T02:09:16;3.93;;;2.40;;
19301;SDS011;9785;59.362;12.152;2022-07-31T02:11:46;3.90;;;2.73;;
19301;SDS011;9785;59.362;12.152;2022-07-31T02:14:20;3.93;;;2.60;;
19301;SDS011;9785;59.362;12.152;2022-07-31T02:16:50;2.63;;;2.43;;
19301;SDS011;9785;59.362;12.152;2022-07-31T02:19:18;3.33;;;2.53;;
19301;SDS011;9785;59.362;12.152;2022-07-31T02:21:48;3.50;;;2.90;;
19301;SDS011;9785;59.362;12.152;2022-07-31T02:24:17;3.20;;;2.90;;
19301;SDS011;9785;59.362;12.152;2022-07-31T02:26:45;6.03;;;3.00;;
19301;SDS011;9785;59.362;12.152;2022-07-31T02:29:14;3.43;;;2.90;;
19301;SDS011;9785;59.362;12.152;2022-07-31T02:31:46;5.67;;;3.27;;
19301;SDS011;9785;59.362;12.152;2022-07-31T02:34:30;2.80;;;2.60;;
19301;SDS011;9785;59.362;12.152;2022-07-31T02:36:59;3.43;;;2.40;;
19301;SDS011;9785;59.362;12.152;2022-07-31T02:39:28;3.10;;;2.70;;
19301;SDS011;9785;59.362;12.152;2022-07-31T02:41:58;2.57;;;2.37;;
19301;SDS011;9785;59.362;12.152;2022-07-31T02:44:28;5.23;;;2.70;;
19301;SDS011;9785;59.362;12.152;2022-07-31T02:47:00;5.53;;;2.63;;
19301;SDS011;9785;59.362;12.152;2022-07-31T02:49:32;6.23;;;2.80;;
19301;SDS011;9785;59.362;12.152;2022-07-31T02:52:00;3.07;;;2.80;;
19301;SDS011;9785;59.362;12.152;2022-07-31T02:54:30;2.60;;;2.40;;
19301;SDS011;9785;59.362;12.152;2022-07-31T02:56:58;6.60;;;2.70;;
19301;SDS011;9785;59.362;12.152;2022-07-31T02:59:27;5.77;;;2.70;;
19301;SDS011;9785;59.362;12.152;2022-07-31T03:01:55;3.00;;;2.70;;
19301;SDS011;9785;59.362;12.152;2022-07-31T03:04:23;3.17;;;2.87;;
19301;SDS011;9785;59.362;12.152;2022-07-31T03:06:53;3.50;;;2.60;;
19301;SDS011;9785;59.362;12.152;2022-07-31T03:09:22;3.00;;;2.87;;
19301;SDS011;9785;59.362;12.152;2022-07-31T03:11:50;3.10;;;2.90;;
19301;SDS011;9785;59.362;12.152;2022-07-31T03:14:19;3.13;;;2.77;;
19301;SDS011;9785;59.362;12.152;2022-07-31T03:16:48;4.03;;;2.50;;
19301;SDS011;9785;59.362;12.152;2022-07-31T03:19:17;2.87;;;2.70;;
19301;SDS011;9785;59.362;12.152;2022-07-31T03:21:47;3.20;;;2.63;;
19301;SDS011;9785;59.362;12.152;2022-07-31T03:24:17;4.50;;;2.47;;
19301;SDS011;9785;59.362;12.152;2022-07-31T03:26:46;4.57;;;2.63;;
19301;SDS011;9785;59.362;12.152;2022-07-31T03:29:15;3.17;;;2.80;;
19301;SDS011;9785;59.362;12.152;2022-07-31T03:32:04;2.70;;;2.50;;
19301;SDS011;9785;59.362;12.152;2022-07-31T03:34:33;2.70;;;2.43;;
19301;SDS011;9785;59.362;12.152;2022-07-31T03:37:01;3.53;;;2.87;;
19301;SDS011;9785;59.362;12.152;2022-07-31T03:39:31;3.23;;;2.40;;
19301;SDS011;9785;59.362;12.152;2022-07-31T03:41:59;2.60;;;2.50;;
19301;SDS011;9785;59.362;12.152;2022-07-31T03:44:29;2.80;;;2.60;;
19301;SDS011;9785;59.362;12.152;2022-07-31T03:46:58;5.57;;;2.93;;
19301;SDS011;9785;59.362;12.152;2022-07-31T03:49:27;2.47;;;2.33;;
19301;SDS011;9785;59.362;12.152;2022-07-31T03:51:56;3.17;;;2.30;;
19301;SDS011;9785;59.362;12.152;2022-07-31T03:54:27;5.30;;;2.60;;
19301;SDS011;9785;59.362;12.152;2022-07-31T03:56:56;2.90;;;2.70;;
19301;SDS011;9785;59.362;12.152;2022-07-31T03:59:25;2.43;;;2.33;;
19301;SDS011;9785;59.362;12.152;2022-07-31T04:02:00;4.63;;;2.50;;
19301;SDS011;9785;59.362;12.152;2022-07-31T04:04:32;2.77;;;2.50;;
19301;SDS011;9785;59.362;12.152;2022-07-31T04:07:00;2.83;;;2.30;;
19301;SDS011;9785;59.362;12.152;2022-07-31T04:09:29;3.10;;;2.50;;
19301;SDS011;9785;59.362;12.152;2022-07-31T04:11:58;2.53;;;2.40;;
19301;SDS011;9785;59.362;12.152;2022-07-31T04:14:27;6.23;;;2.60;;
19301;SDS011;9785;59.362;12.152;2022-07-31T04:16:55;3.10;;;2.80;;
19301;SDS011;9785;59.362;12.152;2022-07-31T04:19:24;2.43;;;2.27;;
19301;SDS011;9785;59.362;12.152;2022-07-31T04:21:56;2.77;;;2.57;;
19301;SDS011;9785;59.362;12.152;2022-07-31T04:24:24;2.50;;;2.20;;
19301;SDS011;9785;59.362;12.152;2022-07-31T04:26:53;2.80;;;2.60;;
19301;SDS011;9785;59.362;12.152;2022-07-31T04:29:23;2.37;;;2.27;;
19301;SDS011;9785;59.362;12.152;2022-07-31T04:31:54;4.33;;;2.30;;
19301;SDS011;9785;59.362;12.152;2022-07-31T04:34:22;4.90;;;2.43;;
19301;SDS011;9785;59.362;12.152;2022-07-31T04:36:51;2.20;;;2.10;;
19301;SDS011;9785;59.362;12.152;2022-07-31T04:39:19;2.30;;;2.20;;
19301;SDS011;9785;59.362;12.152;2022-07-31T04:41:47;3.80;;;2.50;;
19301;SDS011;9785;59.362;12.152;2022-07-31T04:44:18;2.60;;;2.50;;
19301;SDS011;9785;59.362;12.152;2022-07-31T04:46:48;2.43;;;2.20;;
19301;SDS011;9785;59.362;12.152;2022-07-31T04:49:16;2.97;;;2.30;;
19301;SDS011;9785;59.362;12.152;2022-07-31T04:51:45;2.77;;;2.40;;
19301;SDS011;9785;59.362;12.152;2022-07-31T04:54:13;3.33;;;2.77;;
19301;SDS011;9785;59.362;12.152;2022-07-31T04:56:42;2.53;;;2.33;;
19301;SDS011;9785;59.362;12.152;2022-07-31T04:59:14;2.70;;;2.50;;
19301;SDS011;9785;59.362;12.152;2022-07-31T05:01:43;2.67;;;2.30;;
19301;SDS011;9785;59.362;12.152;2022-07-31T05:04:13;2.73;;;2.53;;
19301;SDS011;9785;59.362;12.152;2022-07-31T05:06:42;3.80;;;2.50;;
19301;SDS011;9785;59.362;12.152;2022-07-31T05:09:11;4.03;;;2.60;;
19301;SDS011;9785;59.362;12.152;2022-07-31T05:11:44;2.83;;;2.63;;
19301;SDS011;9785;59.362;12.152;2022-07-31T05:14:14;4.07;;;2.80;;
19301;SDS011;9785;59.362;12.152;2022-07-31T05:16:42;3.07;;;2.87;;
19301;SDS011;9785;59.362;12.152;2022-07-31T05:19:15;2.90;;;2.70;;
19301;SDS011;9785;59.362;12.152;2022-07-31T05:21:44;3.03;;;2.33;;
19301;SDS011;9785;59.362;12.152;2022-07-31T05:24:29;2.70;;;2.60;;
19301;SDS011;9785;59.362;12.152;2022-07-31T05:26:59;3.37;;;2.70;;
19301;SDS011;9785;59.362;12.152;2022-07-31T05:29:28;2.93;;;2.63;;
19301;SDS011;9785;59.362;12.152;2022-07-31T05:31:56;2.53;;;2.43;;
19301;SDS011;9785;59.362;12.152;2022-07-31T05:34:28;2.43;;;2.33;;
19301;SDS011;9785;59.362;12.152;2022-07-31T05:36:56;2.40;;;2.30;;
19301;SDS011;9785;59.362;12.152;2022-07-31T05:39:27;5.50;;;2.80;;
19301;SDS011;9785;59.362;12.152;2022-07-31T05:41:55;2.47;;;2.30;;
19301;SDS011;9785;59.362;12.152;2022-07-31T05:44:24;3.10;;;2.30;;
19301;SDS011;9785;59.362;12.152;2022-07-31T05:46:52;2.43;;;2.20;;
19301;SDS011;9785;59.362;12.152;2022-07-31T05:49:20;2.63;;;2.43;;
19301;SDS011;9785;59.362;12.152;2022-07-31T05:51:53;2.33;;;2.13;;
19301;SDS011;9785;59.362;12.152;2022-07-31T05:54:22;2.63;;;2.20;;
19301;SDS011;9785;59.362;12.152;2022-07-31T05:56:50;6.63;;;2.30;;
19301;SDS011;9785;59.362;12.152;2022-07-31T05:59:18;3.23;;;2.30;;
19301;SDS011;9785;59.362;12.152;2022-07-31T06:01:47;1.90;;;1.80;;
19301;SDS011;9785;59.362;12.152;2022-07-31T06:04:15;2.20;;;2.00;;
19301;SDS011;9785;59.362;12.152;2022-07-31T06:06:43;2.70;;;1.70;;
19301;SDS011;9785;59.362;12.152;2022-07-31T06:09:13;2.93;;;2.07;;
19301;SDS011;9785;59.362;12.152;2022-07-31T06:11:42;2.83;;;1.90;;
19301;SDS011;9785;59.362;12.152;2022-07-31T06:14:10;2.63;;;1.70;;
19301;SDS011;9785;59.362;12.152;2022-07-31T06:16:39;2.17;;;1.87;;
19301;SDS011;9785;59.362;12.152;2022-07-31T06:19:07;1.80;;;1.70;;
19301;SDS011;9785;59.362;12.152;2022-07-31T06:21:35;1.73;;;1.63;;
19301;SDS011;9785;59.362;12.152;2022-07-31T06:24:04;1.90;;;1.80;;
19301;SDS011;9785;59.362;12.152;2022-07-31T06:26:35;1.90;;;1.80;;
19301;SDS011;9785;59.362;12.152;2022-07-31T06:29:04;2.60;;;1.87;;
19301;SDS011;9785;59.362;12.152;2022-07-31T06:31:33;3.97;;;1.90;;
19301;SDS011;9785;59.362;12.152;2022-07-31T06:34:01;2.93;;;1.77;;
19301;SDS011;9785;59.362;12.152;2022-07-31T06:36:29;3.30;;;1.87;;
19301;SDS011;9785;59.362;12.152;2022-07-31T06:38:58;2.53;;;2.00;;
19301;SDS011;9785;59.362;12.152;2022-07-31T06:41:26;3.23;;;1.90;;
19301;SDS011;9785;59.362;12.152;2022-07-31T06:44:14;3.20;;;1.90;;
19301;SDS011;9785;59.362;12.152;2022-07-31T06:46:42;2.10;;;1.80;;
19301;SDS011;9785;59.362;12.152;2022-07-31T06:49:14;2.43;;;2.00;;
19301;SDS011;9785;59.362;12.152;2022-07-31T06:51:43;1.80;;;1.70;;
19301;SDS011;9785;59.362;12.152;2022-07-31T06:54:11;2.40;;;1.80;;
19301;SDS011;9785;59.362;12.152;2022-07-31T06:56:40;1.93;;;1.83;;
19301;SDS011;9785;59.362;12.152;2022-07-31T06:59:09;1.90;;;1.80;;
19301;SDS011;9785;59.362;12.152;2022-07-31T07:01:38;3.03;;;2.10;;
19301;SDS011;9785;59.362;12.152;2022-07-31T07:04:07;2.47;;;1.77;;
19301;SDS011;9785;59.362;12.152;2022-07-31T07:06:35;3.60;;;1.80;;
19301;SDS011;9785;59.362;12.152;2022-07-31T07:09:04;1.83;;;1.73;;
19301;SDS011;9785;59.362;12.152;2022-07-31T07:11:33;2.47;;;1.73;;
19301;SDS011;9785;59.362;12.152;2022-07-31T07:14:01;2.77;;;1.67;;
19301;SDS011;9785;59.362;12.152;2022-07-31T07:16:29;1.83;;;1.73;;
19301;SDS011;9785;59.362;12.152;2022-07-31T07:18:59;2.07;;;1.70;;
19301;SDS011;9785;59.362;12.152;2022-07-31T07:21:28;2.17;;;1.97;;
19301;SDS011;9785;59.362;12.152;2022-07-31T07:23:56;1.93;;;1.73;;
19301;SDS011;9785;59.362;12.152;2022-07-31T07:26:24;1.70;;;1.60;;
19301;SDS011;9785;59.362;12.152;2022-07-31T07:28:53;5.37;;;2.00;;
19301;SDS011;9785;59.362;12.152;2022-07-31T07:31:21;1.93;;;1.67;;
19301;SDS011;9785;59.362;12.152;2022-07-31T07:33:50;2.17;;;1.60;;
19301;SDS011;9785;59.362;12.152;2022-07-31T07:36:19;1.73;;;1.63;;
19301;SDS011;9785;59.362;12.152;2022-07-31T07:38:50;3.97;;;2.10;;
19301;SDS011;9785;59.362;12.152;2022-07-31T07:41:20;4.60;;;2.07;;
19301;SDS011;9785;59.362;12.152;2022-07-31T07:43:49;3.37;;;1.70;;
19301;SDS011;9785;59.362;12.152;2022-07-31T07:46:18;2.57;;;1.93;;
19301;SDS011;9785;59.362;12.152;2022-07-31T07:48:47;2.53;;;1.63;;
19301;SDS011;9785;59.362;12.152;2022-07-31T07:51:16;4.00;;;1.50;;
19301;SDS011;9785;59.362;12.152;2022-07-31T07:53:46;1.83;;;1.73;;
19301;SDS011;9785;59.362;12.152;2022-07-31T07:56:14;2.97;;;2.10;;
19301;SDS011;9785;59.362;12.152;2022-07-31T07:58:43;1.97;;;1.77;;
19301;SDS011;9785;59.362;12.152;2022-07-31T08:01:11;2.27;;;1.77;;
19301;SDS011;9785;59.362;12.152;2022-07-31T08:03:40;1.83;;;1.73;;
19301;SDS011;9785;59.362;12.152;2022-07-31T08:06:17;4.13;;;1.90;;
19301;SDS011;9785;59.362;12.152;2022-07-31T08:08:46;4.20;;;2.20;;
19301;SDS011;9785;59.362;12.152;2022-07-31T08:11:15;2.70;;;1.90;;
19301;SDS011;9785;59.362;12.152;2022-07-31T08:13:44;2.20;;;2.00;;
19301;SDS011;9785;59.362;12.152;2022-07-31T08:16:16;2.80;;;2.20;;
19301;SDS011;9785;59.362;12.152;2022-07-31T08:18:44;3.17;;;2.00;;
19301;SDS011;9785;59.362;12.152;2022-07-31T08:21:14;2.57;;;2.10;;
19301;SDS011;9785;59.362;12.152;2022-07-31T08:23:42;2.37;;;2.00;;
19301;SDS011;9785;59.362;12.152;2022-07-31T08:26:12;3.43;;;2.00;;
19301;SDS011;9785;59.362;12.152;2022-07-31T08:28:41;3.80;;;1.90;;
19301;SDS011;9785;59.362;12.152;2022-07-31T08:31:16;2.00;;;1.80;;
19301;SDS011;9785;59.362;12.152;2022-07-31T08:33:44;4.00;;;1.80;;
19301;SDS011;9785;59.362;12.152;2022-07-31T08:36:13;2.70;;;1.80;;
19301;SDS011;9785;59.362;12.152;2022-07-31T08:38:41;2.30;;;1.93;;
19301;SDS011;9785;59.362;12.152;2022-07-31T08:41:11;2.93;;;1.80;;
19301;SDS011;9785;59.362;12.152;2022-07-31T08:43:41;3.53;;;1.80;;
19301;SDS011;9785;59.362;12.152;2022-07-31T08:46:29;2.30;;;1.83;;
19301;SDS011;9785;59.362;12.152;2022-07-31T08:48:59;1.87;;;1.77;;
19301;SDS011;9785;59.362;12.152;2022-07-31T08:51:30;4.17;;;2.00;;
19301;SDS011;9785;59.362;12.152;2022-07-31T08:54:17;1.80;;;1.70;;
19301;SDS011;9785;59.362;12.152;2022-07-31T08:56:46;1.73;;;1.63;;
19301;SDS011;9785;59.362;12.152;2022-07-31T08:59:19;4.27;;;1.90;;
19301;SDS011;9785;59.362;12.152;2022-07-31T09:01:48;3.72;;;1.85;;
19301;SDS011;9785;59.362;12.152;2022-07-31T09:04:18;3.17;;;1.83;;
19301;SDS011;9785;59.362;12.152;2022-07-31T09:06:46;4.20;;;2.28;;
19301;SDS011;9785;59.362;12.152;2022-07-31T09:09:15;2.47;;;1.98;;
19301;SDS011;9785;59.362;12.152;2022-07-31T09:11:47;4.03;;;1.80;;
19301;SDS011;9785;59.362;12.152;2022-07-31T09:14:24;1.90;;;1.80;;
19301;SDS011;9785;59.362;12.152;2022-07-31T09:16:54;3.33;;;2.00;;
19301;SDS011;9785;59.362;12.152;2022-07-31T09:19:23;2.00;;;1.80;;
19301;SDS011;9785;59.362;12.152;2022-07-31T09:22:18;2.65;;;1.85;;
19301;SDS011;9785;59.362;12.152;2022-07-31T09:24:46;1.95;;;1.83;;
19301;SDS011;9785;59.362;12.152;2022-07-31T09:27:15;3.20;;;1.80;;
19301;SDS011;9785;59.362;12.152;2022-07-31T09:29:45;1.92;;;1.65;;
19301;SDS011;9785;59.362;12.152;2022-07-31T09:32:15;2.58;;;1.80;;
19301;SDS011;9785;59.362;12.152;2022-07-31T09:34:44;4.43;;;2.00;;
19301;SDS011;9785;59.362;12.152;2022-07-31T09:37:13;2.15;;;1.80;;
19301;SDS011;9785;59.362;12.152;2022-07-31T09:39:47;2.33;;;2.13;;
19301;SDS011;9785;59.362;12.152;2022-07-31T09:42:18;2.05;;;1.77;;
19301;SDS011;9785;59.362;12.152;2022-07-31T09:44:48;5.03;;;2.13;;
19301;SDS011;9785;59.362;12.152;2022-07-31T09:47:20;7.70;;;2.13;;
19301;SDS011;9785;59.362;12.152;2022-07-31T09:49:53;2.17;;;1.90;;
19301;SDS011;9785;59.362;12.152;2022-07-31T09:52:21;6.00;;;1.98;;
19301;SDS011;9785;59.362;12.152;2022-07-31T09:54:58;4.03;;;2.00;;
19301;SDS011;9785;59.362;12.152;2022-07-31T09:57:49;2.10;;;1.88;;
19301;SDS011;9785;59.362;12.152;2022-07-31T10:00:20;3.05;;;1.83;;
19301;SDS011;9785;59.362;12.152;2022-07-31T10:02:50;4.70;;;1.80;;
19301;SDS011;9785;59.362;12.152;2022-07-31T10:05:20;3.47;;;1.90;;
19301;SDS011;9785;59.362;12.152;2022-07-31T10:07:50;2.28;;;1.73;;
19301;SDS011;9785;59.362;12.152;2022-07-31T10:10:18;4.40;;;1.88;;
19301;SDS011;9785;59.362;12.152;2022-07-31T10:12:49;6.35;;;1.90;;
19301;SDS011;9785;59.362;12.152;2022-07-31T10:15:21;6.45;;;2.13;;
19301;SDS011;9785;59.362;12.152;2022-07-31T10:17:51;3.53;;;2.10;;
19301;SDS011;9785;59.362;12.152;2022-07-31T10:20:20;2.10;;;1.90;;
19301;SDS011;9785;59.362;12.152;2022-07-31T10:22:52;3.25;;;1.77;;
19301;SDS011;9785;59.362;12.152;2022-07-31T10:25:23;2.85;;;2.30;;
19301;SDS011;9785;59.362;12.152;2022-07-31T10:27:52;4.67;;;2.00;;
19301;SDS011;9785;59.362;12.152;2022-07-31T10:30:24;3.05;;;2.22;;
19301;SDS011;9785;59.362;12.152;2022-07-31T10:32:54;4.70;;;2.10;;
19301;SDS011;9785;59.362;12.152;2022-07-31T10:35:24;2.53;;;2.08;;
19301;SDS011;9785;59.362;12.152;2022-07-31T10:37:55;2.60;;;2.40;;
19301;SDS011;9785;59.362;12.152;2022-07-31T10:40:28;4.33;;;2.37;;
19301;SDS011;9785;59.362;12.152;2022-07-31T10:43:08;4.40;;;2.20;;
19301;SDS011;9785;59.362;12.152;2022-07-31T10:45:45;2.30;;;2.15;;
19301;SDS011;9785;59.362;12.152;2022-07-31T10:48:14;3.20;;;2.27;;
19301;SDS011;9785;59.362;12.152;2022-07-31T10:50:43;3.97;;;2.43;;
19301;SDS011;9785;59.362;12.152;2022-07-31T10:53:12;5.10;;;2.80;;
19301;SDS011;9785;59.362;12.152;2022-07-31T10:55:41;8.10;;;2.77;;
19301;SDS011;9785;59.362;12.152;2022-07-31T10:58:10;3.87;;;2.60;;
19301;SDS011;9785;59.362;12.152;2022-07-31T11:00:39;4.30;;;2.93;;
19301;SDS011;9785;59.362;12.152;2022-07-31T11:03:14;5.50;;;3.20;;
19301;SDS011;9785;59.362;12.152;2022-07-31T11:05:52;4.07;;;2.83;;
19301;SDS011;9785;59.362;12.152;2022-07-31T11:08:38;6.10;;;2.83;;
19301;SDS011;9785;59.362;12.152;2022-07-31T11:11:07;4.17;;;3.03;;
19301;SDS011;9785;59.362;12.152;2022-07-31T11:13:45;6.80;;;3.43;;
19301;SDS011;9785;59.362;12.152;2022-07-31T11:16:13;6.97;;;3.43;;
19301;SDS011;9785;59.362;12.152;2022-07-31T11:18:43;6.67;;;3.77;;
19301;SDS011;9785;59.362;12.152;2022-07-31T11:21:12;3.57;;;3.20;;
19301;SDS011;9785;59.362;12.152;2022-07-31T11:24:10;6.23;;;2.93;;
19301;SDS011;9785;59.362;12.152;2022-07-31T11:26:40;2.83;;;2.53;;
19301;SDS011;9785;59.362;12.152;2022-07-31T11:29:09;3.63;;;2.60;;
19301;SDS011;9785;59.362;12.152;2022-07-31T11:31:58;3.23;;;2.17;;
19301;SDS011;9785;59.362;12.152;2022-07-31T11:34:28;3.23;;;2.10;;
19301;SDS011;9785;59.362;12.152;2022-07-31T11:36:56;3.43;;;2.60;;
19301;SDS011;9785;59.362;12.152;2022-07-31T11:39:25;3.10;;;2.47;;
19301;SDS011;9785;59.362;12.152;2022-07-31T11:42:02;4.20;;;2.50;;
19301;SDS011;9785;59.362;12.152;2022-07-31T11:44:33;6.20;;;2.90;;
19301;SDS011;9785;59.362;12.152;2022-07-31T11:47:01;3.00;;;2.73;;
19301;SDS011;9785;59.362;12.152;2022-07-31T11:50:00;2.87;;;2.57;;
19301;SDS011;9785;59.362;12.152;2022-07-31T11:52:28;3.93;;;2.73;;
19301;SDS011;9785;59.362;12.152;2022-07-31T11:55:03;4.57;;;3.00;;
19301;SDS011;9785;59.362;12.152;2022-07-31T11:57:35;3.23;;;2.83;;
19301;SDS011;9785;59.362;12.152;2022-07-31T12:00:18;4.33;;;2.73;;
19301;SDS011;9785;59.362;12.152;2022-07-31T12:02:55;4.03;;;2.97;;
19301;SDS011;9785;59.362;12.152;2022-07-31T12:05:25;4.07;;;2.60;;
19301;SDS011;9785;59.362;12.152;2022-07-31T12:08:04;5.40;;;2.77;;
19301;SDS011;9785;59.362;12.152;2022-07-31T12:10:33;4.17;;;2.90;;
19301;SDS011;9785;59.362;12.152;2022-07-31T12:13:01;3.30;;;3.10;;
19301;SDS011;9785;59.362;12.152;2022-07-31T12:15:30;5.23;;;2.90;;
19301;SDS011;9785;59.362;12.152;2022-07-31T12:17:59;3.30;;;3.00;;
19301;SDS011;9785;59.362;12.152;2022-07-31T12:20:29;6.37;;;3.10;;
19301;SDS011;9785;59.362;12.152;2022-07-31T12:23:03;3.13;;;2.72;;
19301;SDS011;9785;59.362;12.152;2022-07-31T12:25:38;3.00;;;2.80;;
19301;SDS011;9785;59.362;12.152;2022-07-31T12:28:07;7.03;;;2.80;;
19301;SDS011;9785;59.362;12.152;2022-07-31T12:30:36;4.65;;;3.30;;
19301;SDS011;9785;59.362;12.152;2022-07-31T12:33:04;6.63;;;2.80;;
19301;SDS011;9785;59.362;12.152;2022-07-31T12:35:35;3.17;;;2.63;;
19301;SDS011;9785;59.362;12.152;2022-07-31T12:38:22;2.47;;;2.30;;
19301;SDS011;9785;59.362;12.152;2022-07-31T12:41:06;7.43;;;2.53;;
19301;SDS011;9785;59.362;12.152;2022-07-31T12:43:36;5.97;;;2.40;;
19301;SDS011;9785;59.362;12.152;2022-07-31T12:46:15;3.17;;;2.28;;
19301;SDS011;9785;59.362;12.152;2022-07-31T12:48:44;4.63;;;2.75;;
19301;SDS011;9785;59.362;12.152;2022-07-31T12:51:13;6.15;;;2.60;;
19301;SDS011;9785;59.362;12.152;2022-07-31T12:54:06;4.55;;;2.47;;
19301;SDS011;9785;59.362;12.152;2022-07-31T12:56:34;5.82;;;2.50;;
19301;SDS011;9785;59.362;12.152;2022-07-31T12:59:03;2.80;;;2.60;;
19301;SDS011;9785;59.362;12.152;2022-07-31T13:01:32;3.78;;;2.50;;
19301;SDS011;9785;59.362;12.152;2022-07-31T13:04:01;2.55;;;2.35;;
19301;SDS011;9785;59.362;12.152;2022-07-31T13:06:45;4.72;;;2.45;;
19301;SDS011;9785;59.362;12.152;2022-07-31T13:09:16;6.68;;;2.55;;
19301;SDS011;9785;59.362;12.152;2022-07-31T13:11:45;2.70;;;2.50;;
19301;SDS011;9785;59.362;12.152;2022-07-31T13:14:16;2.55;;;2.45;;
19301;SDS011;9785;59.362;12.152;2022-07-31T13:16:45;3.70;;;2.55;;
19301;SDS011;9785;59.362;12.152;2022-07-31T13:19:14;4.72;;;2.50;;
19301;SDS011;9785;59.362;12.152;2022-07-31T13:21:42;2.85;;;2.50;;
19301;SDS011;9785;59.362;12.152;2022-07-31T13:24:16;3.67;;;2.25;;
19301;SDS011;9785;59.362;12.152;2022-07-31T13:26:45;5.75;;;2.50;;
19301;SDS011;9785;59.362;12.152;2022-07-31T13:29:14;2.30;;;2.10;;
19301;SDS011;9785;59.362;12.152;2022-07-31T13:31:42;5.25;;;2.35;;
19301;SDS011;9785;59.362;12.152;2022-07-31T13:34:11;2.40;;;2.20;;
19301;SDS011;9785;59.362;12.152;2022-07-31T13:36:40;2.35;;;2.10;;
19301;SDS011;9785;59.362;12.152;2022-07-31T13:39:08;4.60;;;2.38;;
19301;SDS011;9785;59.362;12.152;2022-07-31T13:41:38;4.30;;;2.50;;
19301;SDS011;9785;59.362;12.152;2022-07-31T13:44:07;6.00;;;2.30;;
19301;SDS011;9785;59.362;12.152;2022-07-31T13:46:35;5.35;;;2.58;;
19301;SDS011;9785;59.362;12.152;2022-07-31T13:49:04;4.93;;;2.80;;
19301;SDS011;9785;59.362;12.152;2022-07-31T13:51:35;3.17;;;2.60;;
19301;SDS011;9785;59.362;12.152;2022-07-31T13:54:04;3.20;;;3.00;;
19301;SDS011;9785;59.362;12.152;2022-07-31T13:56:33;2.83;;;2.63;;
19301;SDS011;9785;59.362;12.152;2022-07-31T13:59:10;6.13;;;2.75;;
19301;SDS011;9785;59.362;12.152;2022-07-31T14:01:39;4.28;;;2.75;;
19301;SDS011;9785;59.362;12.152;2022-07-31T14:04:28;5.25;;;2.90;;
19301;SDS011;9785;59.362;12.152;2022-07-31T14:07:04;5.20;;;2.90;;
19301;SDS011;9785;59.362;12.152;2022-07-31T14:09:33;6.38;;;2.85;;
19301;SDS011;9785;59.362;12.152;2022-07-31T14:12:03;3.22;;;2.90;;
19301;SDS011;9785;59.362;12.152;2022-07-31T14:14:34;6.43;;;2.83;;
19301;SDS011;9785;59.362;12.152;2022-07-31T14:17:02;2.83;;;2.67;;
19301;SDS011;9785;59.362;12.152;2022-07-31T14:19:31;4.05;;;2.70;;
19301;SDS011;9785;59.362;12.152;2022-07-31T14:22:10;3.00;;;2.80;;
19301;SDS011;9785;59.362;12.152;2022-07-31T14:24:38;2.97;;;2.60;;
19301;SDS011;9785;59.362;12.152;2022-07-31T14:27:16;3.55;;;2.50;;
19301;SDS011;9785;59.362;12.152;2022-07-31T14:29:46;4.15;;;2.80;;
19301;SDS011;9785;59.362;12.152;2022-07-31T14:32:14;3.00;;;2.60;;
19301;SDS011;9785;59.362;12.152;2022-07-31T14:34:44;3.10;;;2.90;;
19301;SDS011;9785;59.362;12.152;2022-07-31T14:37:13;3.13;;;2.50;;
19301;SDS011;9785;59.362;12.152;2022-07-31T14:39:41;3.97;;;2.67;;
19301;SDS011;9785;59.362;12.152;2022-07-31T14:42:10;4.45;;;2.50;;
19301;SDS011;9785;59.362;12.152;2022-07-31T14:44:38;3.65;;;2.30;;
19301;SDS011;9785;59.362;12.152;2022-07-31T14:47:09;3.70;;;2.60;;
19301;SDS011;9785;59.362;12.152;2022-07-31T14:49:38;4.93;;;2.37;;
19301;SDS011;9785;59.362;12.152;2022-07-31T14:52:27;2.63;;;2.43;;
19301;SDS011;9785;59.362;12.152;2022-07-31T14:54:56;2.70;;;2.50;;
19301;SDS011;9785;59.362;12.152;2022-07-31T14:57:25;2.93;;;2.50;;
19301;SDS011;9785;59.362;12.152;2022-07-31T14:59:53;5.07;;;2.73;;
19301;SDS011;9785;59.362;12.152;2022-07-31T15:02:23;2.63;;;2.40;;
19301;SDS011;9785;59.362;12.152;2022-07-31T15:04:51;2.80;;;2.60;;
19301;SDS011;9785;59.362;12.152;2022-07-31T15:07:20;3.57;;;2.90;;
19301;SDS011;9785;59.362;12.152;2022-07-31T15:10:10;3.43;;;3.13;;
19301;SDS011;9785;59.362;12.152;2022-07-31T15:12:39;4.83;;;2.97;;